Time;durP1;ratioP1;P1;durP2;ratioP2;P2;SDS_P1;SDS_P2;PMS_P1;PMS_P2;Temp;Humidity;BMP_temperature;BMP_pressure;BME280_temperature;BME280_humidity;BME280_pressure;Samples;Min_cycle;Max_cycle;Signal;HPM_P1;HPM_P2
2021/09/10 00:01:58;;;;;;;19.83;12.88;;;;;;;12.88;90.41;98892.66;5073811;28;20049;-60
2021/09/10 00:04:24;;;;;;;18.50;11.43;;;;;;;12.88;90.18;98897.97;5072619;28;20072;-60
2021/09/10 00:06:50;;;;;;;23.05;11.90;;;;;;;12.88;90.34;98893.47;5073756;28;20067;-61
2021/09/10 00:09:17;;;;;;;20.85;12.13;;;;;;;12.88;90.28;98890.81;5074015;28;20339;-60
2021/09/10 00:11:43;;;;;;;22.77;12.18;;;;;;;12.89;90.37;98886.28;5073781;28;20569;-59
2021/09/10 00:14:09;;;;;;;17.83;11.95;;;;;;;12.96;90.35;98878.84;5073992;28;20497;-59
2021/09/10 00:16:35;;;;;;;18.08;11.77;;;;;;;13.03;89.94;98887.38;5073540;28;20045;-60
2021/09/10 00:19:01;;;;;;;19.80;11.65;;;;;;;13.12;89.75;98875.13;5072471;28;20544;-60
2021/09/10 00:21:26;;;;;;;19.80;11.82;;;;;;;13.20;89.31;98881.75;5073411;28;20044;-61
2021/09/10 00:23:52;;;;;;;18.45;11.48;;;;;;;13.27;89.15;98884.22;5073480;28;20135;-60
2021/09/10 00:26:18;;;;;;;17.27;10.88;;;;;;;13.33;88.65;98875.16;5072033;28;20131;-61
2021/09/10 00:28:44;;;;;;;18.83;12.25;;;;;;;13.37;88.93;98878.88;5073602;28;20072;-60
2021/09/10 00:31:10;;;;;;;18.25;11.68;;;;;;;13.40;88.40;98886.31;5073572;28;20413;-61
2021/09/10 00:33:36;;;;;;;19.42;11.75;;;;;;;13.43;88.21;98883.13;5073137;28;20048;-61
2021/09/10 00:36:02;;;;;;;16.27;10.95;;;;;;;13.46;88.29;98876.47;5073491;28;20075;-60
2021/09/10 00:38:28;;;;;;;16.45;11.48;;;;;;;13.46;88.26;98874.59;5073071;28;20139;-60
2021/09/10 00:40:55;;;;;;;16.88;11.38;;;;;;;13.50;87.90;98880.19;5071919;28;20124;-60
2021/09/10 00:43:21;;;;;;;16.08;11.30;;;;;;;13.51;88.05;98879.13;5073026;28;20048;-60
2021/09/10 00:45:48;;;;;;;15.88;10.95;;;;;;;13.51;87.99;98882.59;5073277;28;20456;-62
2021/09/10 00:48:14;;;;;;;17.85;11.40;;;;;;;13.50;88.11;98880.19;5072829;28;20060;-60
2021/09/10 00:50:41;;;;;;;15.48;10.85;;;;;;;13.52;88.20;98886.03;5073138;28;20036;-61
2021/09/10 00:53:08;;;;;;;16.85;11.05;;;;;;;13.51;88.14;98881.78;5072907;28;20048;-59
2021/09/10 00:55:34;;;;;;;16.42;11.10;;;;;;;13.51;87.92;98882.59;5073074;28;20047;-60
2021/09/10 00:58:01;;;;;;;17.70;11.13;;;;;;;13.52;87.59;98884.16;5071563;28;20135;-59
2021/09/10 01:00:27;;;;;;;17.92;10.70;;;;;;;13.53;88.02;98882.31;5073205;28;20083;-60
2021/09/10 01:02:53;;;;;;;16.42;11.38;;;;;;;13.56;87.54;98884.41;5072901;28;20202;-60
2021/09/10 01:05:19;;;;;;;17.38;10.93;;;;;;;13.58;87.46;98884.97;5054412;28;20553;-61
2021/09/10 01:07:46;;;;;;;19.25;12.27;;;;;;;13.62;87.58;98891.38;5072568;28;20123;-60
2021/09/10 01:10:12;;;;;;;14.85;10.57;;;;;;;13.68;87.41;98887.63;5071505;28;20041;-58
2021/09/10 01:12:38;;;;;;;18.60;11.52;;;;;;;13.69;87.34;98891.06;5072497;28;20417;-61
2021/09/10 01:15:04;;;;;;;19.35;11.07;;;;;;;13.74;86.87;98891.88;5054785;28;20049;-59
2021/09/10 01:17:30;;;;;;;18.17;11.05;;;;;;;13.77;86.98;98887.88;5072374;28;20047;-60
2021/09/10 01:19:56;;;;;;;18.23;10.75;;;;;;;13.74;86.98;98869.75;5072758;28;20037;-59
2021/09/10 01:22:22;;;;;;;16.42;11.05;;;;;;;13.80;86.76;98890.78;5072470;28;20036;-59
2021/09/10 01:25:18;;;;;;;16.10;10.90;;;;;;;13.82;86.76;98883.34;5072255;28;20101;-60
2021/09/10 01:27:48;;;;;;;17.50;10.80;;;;;;;13.83;86.82;98881.47;5072104;28;20504;-60
2021/09/10 01:30:17;;;;;;;16.17;11.30;;;;;;;13.82;86.71;98877.19;5072633;28;20053;-60
2021/09/10 01:32:43;;;;;;;18.70;10.40;;;;;;;13.85;86.49;98876.63;5071000;28;20054;-60
2021/09/10 01:35:09;;;;;;;17.23;11.02;;;;;;;13.90;86.74;98873.97;5072539;28;20044;-60
2021/09/10 01:37:35;;;;;;;19.48;11.93;;;;;;;13.91;86.09;98872.88;5072200;28;20458;-61
2021/09/10 01:40:01;;;;;;;15.75;10.23;;;;;;;13.93;86.42;98873.41;5071881;28;20131;-60
2021/09/10 01:42:27;;;;;;;15.20;10.57;;;;;;;13.94;86.46;98868.88;5053931;28;20040;-59
2021/09/10 01:44:53;;;;;;;19.60;10.65;;;;;;;13.98;86.24;98872.63;5070637;28;20147;-60
2021/09/10 01:47:18;;;;;;;14.80;10.55;;;;;;;13.98;85.92;98870.75;5070792;28;20064;-60
2021/09/10 01:49:44;;;;;;;18.85;10.18;;;;;;;14.00;85.91;98873.94;5072102;28;20048;-60
2021/09/10 01:52:10;;;;;;;19.08;11.27;;;;;;;14.02;85.83;98860.34;5071604;28;20048;-60
2021/09/10 01:54:36;;;;;;;16.80;9.73;;;;;;;14.02;85.54;98855.78;5071970;28;20049;-60
2021/09/10 01:57:02;;;;;;;14.88;9.82;;;;;;;14.04;86.12;98863.53;5072118;28;20131;-59
2021/09/10 01:59:28;;;;;;;18.63;11.27;;;;;;;14.01;85.61;98861.41;5070435;28;20087;-60
2021/09/10 02:01:55;;;;;;;14.60;10.90;;;;;;;14.04;85.72;98866.19;5070228;28;20525;-61
2021/09/10 02:04:21;;;;;;;15.90;10.23;;;;;;;13.99;85.73;98852.88;5071782;28;20591;-60
2021/09/10 02:06:48;;;;;;;14.23;10.50;;;;;;;14.02;86.04;98855.00;5071481;28;20106;-60
2021/09/10 02:09:14;;;;;;;18.60;10.95;;;;;;;14.02;85.82;98852.34;5071708;28;20049;-61
2021/09/10 02:11:40;;;;;;;14.98;10.18;;;;;;;13.99;85.67;98845.69;5071309;28;20044;-60
2021/09/10 02:14:05;;;;;;;15.77;10.48;;;;;;;14.00;85.82;98860.63;5069948;28;20067;-61
2021/09/10 02:16:31;;;;;;;16.95;9.85;;;;;;;13.99;85.94;98861.66;5070601;28;20041;-59
2021/09/10 02:18:57;;;;;;;14.50;10.07;;;;;;;14.00;85.85;98852.63;5070122;28;20049;-59
2021/09/10 02:21:23;;;;;;;15.98;11.10;;;;;;;13.99;85.60;98847.56;5071304;28;20047;-62
2021/09/10 02:23:49;;;;;;;14.65;10.88;;;;;;;13.98;86.11;98852.09;5071564;28;20052;-60
2021/09/10 02:26:15;;;;;;;14.85;10.63;;;;;;;13.97;86.16;98855.84;5071575;28;20125;-60
2021/09/10 02:28:41;;;;;;;17.17;10.48;;;;;;;13.93;85.74;98860.09;5071445;28;20132;-59
2021/09/10 02:31:06;;;;;;;16.83;11.02;;;;;;;13.89;86.47;98861.72;5071243;28;20039;-60
2021/09/10 02:33:33;;;;;;;16.35;10.70;;;;;;;13.84;86.19;98867.84;5071158;28;20181;-60
2021/09/10 02:35:59;;;;;;;18.40;11.30;;;;;;;13.80;86.84;98864.16;5070084;28;20043;-60
2021/09/10 02:38:25;;;;;;;20.33;11.07;;;;;;;13.77;86.72;98851.38;5069890;28;20036;-60
2021/09/10 02:40:51;;;;;;;16.60;11.35;;;;;;;13.80;86.93;98864.16;5069747;28;20060;-61
2021/09/10 02:43:17;;;;;;;19.63;11.20;;;;;;;13.88;87.04;98864.66;5053090;28;20517;-59
2021/09/10 02:45:43;;;;;;;17.77;11.23;;;;;;;13.94;86.91;98860.88;5071290;28;20090;-61
2021/09/10 02:48:09;;;;;;;15.50;10.98;;;;;;;13.94;86.52;98867.03;5071240;28;20413;-60
2021/09/10 02:50:35;;;;;;;19.05;10.70;;;;;;;13.98;86.42;98860.09;5069650;28;20036;-60
2021/09/10 02:53:01;;;;;;;15.68;10.48;;;;;;;13.99;86.21;98861.66;5070948;28;20098;-60
2021/09/10 02:55:29;;;;;;;17.05;11.30;;;;;;;14.04;86.18;98866.19;5071350;28;20080;-60
2021/09/10 02:57:54;;;;;;;15.07;10.75;;;;;;;14.08;85.81;98862.69;5071190;28;20080;-60
2021/09/10 03:00:22;;;;;;;16.85;11.30;;;;;;;14.07;85.89;98866.44;5070742;28;20052;-60
2021/09/10 03:02:49;;;;;;;16.70;10.52;;;;;;;14.06;85.86;98867.53;5069743;28;20385;-60
2021/09/10 03:05:15;;;;;;;16.13;10.98;;;;;;;13.98;86.14;98864.63;5071327;28;20127;-60
2021/09/10 03:07:41;;;;;;;14.90;10.50;;;;;;;13.97;86.14;98877.16;5070838;28;20131;-59
2021/09/10 03:10:08;;;;;;;16.15;10.48;;;;;;;13.89;86.38;98872.38;5071260;28;20036;-60
2021/09/10 03:12:36;;;;;;;19.42;11.45;;;;;;;13.83;86.55;98876.13;5069784;28;20117;-59
2021/09/10 03:15:06;;;;;;;16.17;12.25;;;;;;;13.85;86.63;98881.97;5071247;28;20041;-61
2021/09/10 03:17:32;;;;;;;15.68;10.68;;;;;;;13.86;86.65;98875.59;5070855;28;20081;-60
2021/09/10 03:19:58;;;;;;;18.83;11.05;;;;;;;13.92;86.84;98882.50;5071250;28;20041;-60
2021/09/10 03:22:23;;;;;;;16.83;10.57;;;;;;;13.98;86.55;98881.41;5070767;28;20517;-60
2021/09/10 03:24:49;;;;;;;16.45;11.27;;;;;;;14.04;86.19;98893.63;5071061;28;20040;-60
2021/09/10 03:27:15;;;;;;;16.42;11.40;;;;;;;14.11;85.73;98895.22;5069671;28;20577;-61
2021/09/10 03:29:41;;;;;;;22.40;11.45;;;;;;;14.14;85.75;98894.66;5074767;28;20052;-60
2021/09/10 03:32:07;;;;;;;19.52;11.23;;;;;;;14.17;85.94;98894.91;5074312;28;20502;-60
2021/09/10 03:34:33;;;;;;;17.45;11.48;;;;;;;14.20;86.07;98904.25;5073205;28;20041;-60
2021/09/10 03:36:58;;;;;;;15.40;10.63;;;;;;;14.23;85.85;98893.81;5074632;28;20467;-60
2021/09/10 03:39:24;;;;;;;14.15;10.48;;;;;;;14.26;85.59;98893.28;5074408;28;20057;-58
2021/09/10 03:41:50;;;;;;;15.95;10.88;;;;;;;14.27;85.38;98900.22;5074284;28;20040;-60
2021/09/10 03:44:16;;;;;;;13.82;10.57;;;;;;;14.30;85.20;98893.53;5072556;28;20043;-59
2021/09/10 03:46:42;;;;;;;15.90;10.98;;;;;;;14.35;85.12;98885.50;5073910;28;20072;-59
2021/09/10 03:49:07;;;;;;;15.20;11.10;;;;;;;14.38;85.12;98900.16;5072850;28;20044;-60
2021/09/10 03:51:33;;;;;;;16.90;11.40;;;;;;;14.38;85.27;98894.81;5074229;28;20395;-61
2021/09/10 03:53:59;;;;;;;17.38;10.60;;;;;;;14.43;84.92;98903.59;5056061;28;20567;-60
2021/09/10 03:56:25;;;;;;;16.00;10.88;;;;;;;14.44;84.58;98907.88;5073929;28;20047;-61
2021/09/10 03:58:51;;;;;;;16.92;10.77;;;;;;;14.48;84.54;98908.13;5072568;28;20048;-60
2021/09/10 04:01:18;;;;;;;17.55;11.38;;;;;;;14.47;84.58;98901.19;5073819;28;20041;-60
2021/09/10 04:03:45;;;;;;;14.57;10.25;;;;;;;14.56;84.49;98912.09;5073790;28;20041;-61
2021/09/10 04:06:11;;;;;;;15.57;10.15;;;;;;;14.59;84.32;98909.72;5073967;28;20055;-61
2021/09/10 04:08:39;;;;;;;18.38;10.90;;;;;;;14.64;84.06;98915.00;5073938;28;20041;-60
2021/09/10 04:11:06;;;;;;;20.67;11.57;;;;;;;14.66;84.14;98917.41;5072452;28;20059;-60
2021/09/10 04:13:32;;;;;;;15.02;9.98;;;;;;;14.70;83.96;98924.56;5073220;28;20055;-60
2021/09/10 04:15:58;;;;;;;14.10;10.45;;;;;;;14.73;83.87;98929.34;5072284;28;20135;-61
2021/09/10 04:18:24;;;;;;;14.10;10.55;;;;;;;14.75;83.50;98916.53;5073386;28;20109;-59
2021/09/10 04:20:50;;;;;;;18.15;11.02;;;;;;;14.86;83.73;98927.94;5073284;28;20151;-61
2021/09/10 04:23:16;;;;;;;16.40;10.32;;;;;;;14.90;83.21;98928.19;5071940;28;20048;-60
2021/09/10 04:25:42;;;;;;;15.70;10.02;;;;;;;14.98;82.85;98935.63;5072173;28;20047;-60
2021/09/10 04:28:07;;;;;;;15.75;10.35;;;;;;;15.05;82.47;98936.09;5073149;28;20042;-60
2021/09/10 04:30:33;;;;;;;16.27;10.55;;;;;;;15.11;82.74;98932.31;5073238;28;20040;-61
2021/09/10 04:32:59;;;;;;;13.45;10.20;;;;;;;15.13;82.42;98930.16;5071935;28;20175;-59
2021/09/10 04:35:25;;;;;;;16.73;9.98;;;;;;;15.20;82.03;98937.84;5022348;28;20387;-59
2021/09/10 04:37:51;;;;;;;14.48;10.10;;;;;;;15.28;82.04;98929.25;5072137;28;20120;-61
2021/09/10 04:40:18;;;;;;;15.43;10.35;;;;;;;15.31;82.00;98923.34;5071124;28;20515;-60
2021/09/10 04:42:45;;;;;;;17.92;10.88;;;;;;;15.40;81.65;98936.91;5071655;28;20063;-60
2021/09/10 04:45:11;;;;;;;13.60;9.85;;;;;;;15.46;81.53;98933.09;5071786;28;20556;-61
2021/09/10 04:47:37;;;;;;;16.50;10.25;;;;;;;15.55;81.13;98934.09;5073075;28;20044;-61
2021/09/10 04:50:04;;;;;;;12.68;9.52;;;;;;;15.60;80.79;98934.06;5073355;28;20040;-60
2021/09/10 04:52:30;;;;;;;14.68;10.25;;;;;;;15.71;80.73;98928.66;5071377;28;20037;-60
2021/09/10 04:54:56;;;;;;;14.45;9.60;;;;;;;15.78;80.39;98929.13;5072772;28;20049;-61
2021/09/10 04:57:22;;;;;;;12.68;9.63;;;;;;;15.82;80.43;98932.81;5071466;28;20088;-60
2021/09/10 04:59:48;;;;;;;16.20;9.68;;;;;;;15.93;79.61;98928.16;5073018;28;20052;-60
2021/09/10 05:02:14;;;;;;;15.95;11.23;;;;;;;16.01;79.55;98927.53;5072714;28;20052;-60
2021/09/10 05:04:40;;;;;;;15.55;10.18;;;;;;;16.04;79.33;98929.66;5072902;28;20067;-59
2021/09/10 05:07:06;;;;;;;12.32;9.40;;;;;;;16.12;78.97;98937.06;5072325;28;20036;-60
2021/09/10 05:09:31;;;;;;;14.85;10.57;;;;;;;16.16;79.20;98932.72;5072683;28;20044;-63
2021/09/10 05:11:57;;;;;;;14.10;10.18;;;;;;;16.23;78.96;98932.38;5054405;28;20129;-62
2021/09/10 05:14:25;;;;;;;18.00;9.60;;;;;;;16.30;78.54;98924.81;5071118;28;20061;-60
2021/09/10 05:16:53;;;;;;;12.50;9.48;;;;;;;16.32;78.14;98918.09;5022081;28;20202;-62
2021/09/10 05:19:19;;;;;;;11.85;9.23;;;;;;;16.40;78.17;98927.34;5072035;28;20568;-61
2021/09/10 05:21:45;;;;;;;14.82;9.52;;;;;;;16.46;78.00;98931.53;5071924;28;20451;-61
2021/09/10 05:24:10;;;;;;;13.52;9.32;;;;;;;16.46;77.91;98925.41;5070806;28;20051;-63
2021/09/10 05:26:36;;;;;;;13.95;9.70;;;;;;;16.48;77.59;98928.59;5070549;28;20040;-63
2021/09/10 05:29:02;;;;;;;20.42;9.65;;;;;;;16.52;77.63;98925.03;5071885;28;20040;-64
2021/09/10 05:31:28;;;;;;;18.38;9.70;;;;;;;16.47;77.51;98927.00;5072301;28;20039;-62
2021/09/10 05:33:54;;;;;;;15.95;9.10;;;;;;;16.48;77.72;98929.38;5070659;28;20559;-63
2021/09/10 05:36:20;;;;;;;12.40;9.10;;;;;;;16.56;77.54;98939.47;5070536;28;20068;-61
2021/09/10 05:38:46;;;;;;;19.42;9.27;;;;;;;16.48;77.31;98932.06;5053719;28;20098;-61
2021/09/10 05:41:12;;;;;;;14.05;10.07;;;;;;;16.55;77.26;98934.38;5071554;28;20358;-61
2021/09/10 05:43:38;;;;;;;14.52;8.82;;;;;;;16.56;77.37;98942.13;5070340;28;20298;-60
2021/09/10 05:46:03;;;;;;;14.20;9.40;;;;;;;16.65;77.14;98944.16;5071807;28;20402;-61
2021/09/10 05:48:29;;;;;;;16.13;9.90;;;;;;;16.80;76.49;98930.59;5065497;28;20032;-60
2021/09/10 05:50:55;;;;;;;11.32;8.63;;;;;;;16.95;75.65;98935.75;5067792;28;20048;-62
2021/09/10 05:53:21;;;;;;;12.70;9.15;;;;;;;17.04;75.61;98935.88;5064788;28;20148;-60
2021/09/10 05:55:46;;;;;;;15.98;8.75;;;;;;;17.22;74.93;98935.06;5068126;28;20509;-62
2021/09/10 05:58:12;;;;;;;18.27;9.32;;;;;;;17.41;74.48;98940.41;5067975;28;20041;-62
2021/09/10 06:00:38;;;;;;;11.90;8.45;;;;;;;17.58;73.89;98952.44;5032612;28;20129;-60
2021/09/10 06:03:05;;;;;;;11.57;8.23;;;;;;;17.62;73.59;98942.75;5049862;28;20552;-60
2021/09/10 06:05:31;;;;;;;14.85;8.80;;;;;;;17.63;73.33;98947.00;5069449;28;20044;-63
2021/09/10 06:07:57;;;;;;;13.38;8.02;;;;;;;17.58;73.49;98949.75;5067330;28;20036;-63
2021/09/10 06:10:22;;;;;;;12.38;8.57;;;;;;;17.57;73.77;98951.66;5017490;28;20040;-60
2021/09/10 06:12:50;;;;;;;10.82;8.07;;;;;;;17.53;73.41;98949.84;5065030;28;20040;-61
2021/09/10 06:15:16;;;;;;;16.75;9.48;;;;;;;17.45;73.83;98962.03;5067825;28;20047;-59
2021/09/10 06:17:43;;;;;;;11.63;8.05;;;;;;;17.45;73.83;98954.78;5050390;28;20066;-60
2021/09/10 06:20:10;;;;;;;15.43;9.43;;;;;;;17.59;73.68;98954.84;5032181;28;20040;-61
2021/09/10 06:22:35;;;;;;;13.05;8.55;;;;;;;17.70;72.97;98958.13;5063983;28;20051;-61
2021/09/10 06:25:02;;;;;;;12.02;8.40;;;;;;;17.78;72.69;98954.78;5067268;28;20044;-60
2021/09/10 06:27:38;;;;;;;11.82;7.90;;;;;;;17.79;72.38;98960.94;5048424;28;20541;-60
2021/09/10 06:30:06;;;;;;;12.55;8.82;;;;;;;17.79;72.50;98961.75;5067038;28;20425;-61
2021/09/10 06:32:32;;;;;;;13.13;8.27;;;;;;;17.84;72.25;98969.69;5064698;28;20090;-60
2021/09/10 06:34:58;;;;;;;11.10;8.52;;;;;;;17.87;72.11;98968.31;5066323;28;20058;-61
2021/09/10 06:37:24;;;;;;;15.30;8.38;;;;;;;17.81;72.21;98964.94;5067263;28;20135;-59
2021/09/10 06:39:50;;;;;;;17.35;8.38;;;;;;;17.87;72.08;98965.63;5067491;28;20040;-61
2021/09/10 06:42:16;;;;;;;9.75;8.02;;;;;;;17.94;72.01;98974.06;5064768;28;20416;-59
2021/09/10 06:44:42;;;;;;;12.88;7.68;;;;;;;18.08;71.79;98971.41;5067580;28;20076;-59
2021/09/10 06:47:07;;;;;;;8.80;7.38;;;;;;;18.27;70.52;98974.81;5067411;28;20044;-61
2021/09/10 06:49:33;;;;;;;11.98;8.18;;;;;;;18.31;70.63;98972.34;5067684;28;20041;-59
2021/09/10 06:51:59;;;;;;;14.48;8.27;;;;;;;18.20;70.21;98977.09;5067181;28;20127;-60
2021/09/10 06:54:25;;;;;;;10.73;8.35;;;;;;;18.14;71.21;98981.75;5067832;28;20517;-61
2021/09/10 06:56:51;;;;;;;14.43;9.48;;;;;;;18.12;71.15;98986.63;5067046;28;20055;-61
2021/09/10 06:59:19;;;;;;;11.82;8.48;;;;;;;18.10;70.85;98986.13;5068970;28;20049;-61
2021/09/10 07:01:46;;;;;;;12.75;8.18;;;;;;;18.11;71.51;98997.66;5066466;28;20044;-61
2021/09/10 07:04:12;;;;;;;11.60;7.72;;;;;;;18.04;71.45;98997.25;5070395;28;20047;-64
2021/09/10 07:06:37;;;;;;;13.05;7.70;;;;;;;18.01;71.66;98998.63;5071380;28;20036;-61
2021/09/10 07:09:04;;;;;;;13.45;8.10;;;;;;;18.00;71.74;99006.97;5069392;28;20139;-63
2021/09/10 07:11:32;;;;;;;11.35;7.25;;;;;;;18.00;71.47;99005.09;5071937;28;20048;-62
2021/09/10 07:13:59;;;;;;;11.95;7.78;;;;;;;17.89;71.80;99001.00;5069622;28;20063;-60
2021/09/10 07:16:25;;;;;;;10.80;7.35;;;;;;;17.98;71.67;99009.94;5070516;28;20036;-59
2021/09/10 07:18:52;;;;;;;11.05;7.40;;;;;;;18.05;71.49;99015.72;5071245;28;20622;-60
2021/09/10 07:21:19;;;;;;;14.82;8.30;;;;;;;18.11;71.37;99014.53;5069382;28;20123;-59
2021/09/10 07:23:45;;;;;;;11.02;7.53;;;;;;;18.11;71.02;99008.38;5068101;28;20051;-60
2021/09/10 07:26:11;;;;;;;10.63;7.10;;;;;;;18.08;71.34;99015.13;5069996;28;20139;-62
2021/09/10 07:28:37;;;;;;;12.63;7.32;;;;;;;18.07;71.43;99024.28;5070515;28;20040;-59
2021/09/10 07:31:04;;;;;;;13.15;7.82;;;;;;;18.02;71.40;99018.19;5069311;28;20036;-62
2021/09/10 07:33:30;;;;;;;10.85;7.40;;;;;;;17.92;71.95;99024.53;5069688;28;20055;-60
2021/09/10 07:35:56;;;;;;;10.77;8.07;;;;;;;17.90;72.05;99027.50;5070636;28;20125;-61
2021/09/10 07:38:22;;;;;;;11.82;8.45;;;;;;;17.89;72.21;99027.81;5071031;28;20078;-58
2021/09/10 07:40:48;;;;;;;11.68;7.57;;;;;;;17.86;72.04;99023.03;5070729;28;20223;-62
2021/09/10 07:43:14;;;;;;;13.65;7.80;;;;;;;17.79;72.30;99023.41;5071319;28;20497;-60
2021/09/10 07:45:40;;;;;;;10.43;7.32;;;;;;;17.78;72.67;99029.06;5068665;28;20075;-61
2021/09/10 07:48:06;;;;;;;11.95;7.50;;;;;;;17.78;72.58;99035.22;5069919;28;20044;-61
2021/09/10 07:50:31;;;;;;;11.30;8.35;;;;;;;17.77;72.83;99032.81;5069437;28;20501;-60
2021/09/10 07:52:57;;;;;;;11.82;7.97;;;;;;;17.82;72.52;99033.53;5070378;28;20048;-61
2021/09/10 07:55:24;;;;;;;10.15;7.78;;;;;;;17.88;72.24;99035.06;5070828;28;20066;-59
2021/09/10 07:57:50;;;;;;;12.57;8.13;;;;;;;17.92;72.45;99030.69;5069907;28;20039;-61
2021/09/10 08:00:20;;;;;;;13.13;7.53;;;;;;;18.09;71.89;99042.75;5051908;28;20049;-61
2021/09/10 08:02:46;;;;;;;14.38;8.52;;;;;;;18.10;71.55;99044.34;5067143;28;20044;-60
2021/09/10 08:05:12;;;;;;;16.95;8.40;;;;;;;18.09;71.47;99046.25;5070615;28;20184;-61
2021/09/10 08:07:38;;;;;;;13.07;7.97;;;;;;;18.13;71.51;99043.75;5069037;28;20071;-61
2021/09/10 08:10:04;;;;;;;18.35;8.90;;;;;;;18.15;71.69;99050.41;5070345;28;20056;-59
2021/09/10 08:12:30;;;;;;;14.20;7.80;;;;;;;18.16;71.12;99057.38;5069175;28;20040;-59
2021/09/10 08:14:56;;;;;;;12.35;9.18;;;;;;;18.22;71.23;99046.56;5034334;28;20151;-60
2021/09/10 08:17:22;;;;;;;14.00;8.75;;;;;;;18.22;71.06;99049.22;5051544;28;20486;-60
2021/09/10 08:19:49;;;;;;;15.43;8.75;;;;;;;18.24;70.98;99049.75;5052298;28;20063;-61
2021/09/10 08:22:17;;;;;;;15.40;8.52;;;;;;;18.28;71.05;99046.16;5067052;28;20072;-62
2021/09/10 08:24:44;;;;;;;11.60;8.75;;;;;;;18.29;70.78;99050.41;5067393;28;20075;-60
2021/09/10 08:27:10;;;;;;;9.70;7.22;;;;;;;18.37;70.07;99057.78;5067656;28;20036;-61
2021/09/10 08:29:36;;;;;;;10.25;7.18;;;;;;;18.53;69.70;99046.75;5071017;28;20052;-62
2021/09/10 08:32:01;;;;;;;10.52;7.57;;;;;;;18.72;69.26;99041.31;5071021;28;20036;-60
2021/09/10 08:34:27;;;;;;;10.80;7.85;;;;;;;18.89;68.72;99051.47;5069816;28;20505;-61
2021/09/10 08:36:53;;;;;;;11.00;7.82;;;;;;;19.07;68.34;99053.22;5067578;28;20518;-60
2021/09/10 08:39:19;;;;;;;15.48;7.10;;;;;;;19.14;67.56;99050.91;5069395;28;20383;-60
2021/09/10 08:41:44;;;;;;;13.18;7.43;;;;;;;19.22;67.17;99042.16;5069520;28;20498;-60
2021/09/10 08:44:12;;;;;;;12.98;7.80;;;;;;;19.24;67.23;99052.59;5051265;28;20045;-61
2021/09/10 08:46:40;;;;;;;10.68;7.30;;;;;;;19.40;66.71;99061.09;5048785;28;20045;-59
2021/09/10 08:49:08;;;;;;;11.48;8.10;;;;;;;19.48;66.10;99055.00;5049274;28;20076;-61
2021/09/10 08:51:34;;;;;;;10.38;6.85;;;;;;;19.45;65.38;99059.09;5045816;28;20127;-60
2021/09/10 08:54:01;;;;;;;11.27;6.97;;;;;;;19.35;65.32;99059.31;5046161;28;20055;-60
2021/09/10 08:56:27;;;;;;;14.73;7.22;;;;;;;19.35;66.03;99058.53;5065521;28;20032;-62
2021/09/10 08:59:07;;;;;;;8.80;6.25;;;;;;;19.38;65.90;99064.09;5067327;28;20539;-63
2021/09/10 09:01:33;;;;;;;8.45;6.28;;;;;;;19.30;65.47;99062.16;5070530;28;20101;-62
2021/09/10 09:04:05;;;;;;;10.02;6.45;;;;;;;19.34;65.36;99065.00;5052957;28;20053;-63
2021/09/10 09:06:32;;;;;;;8.10;6.20;;;;;;;19.27;65.02;99063.53;5068624;28;20086;-60
2021/09/10 09:08:58;;;;;;;9.40;6.53;;;;;;;19.41;65.11;99065.38;5069554;28;20052;-62
2021/09/10 09:11:25;;;;;;;10.05;6.68;;;;;;;19.45;64.74;99064.47;5069744;28;20036;-63
2021/09/10 09:13:54;;;;;;;12.68;6.43;;;;;;;19.71;64.22;99061.25;5032865;28;20072;-60
2021/09/10 09:16:27;;;;;;;10.32;6.35;;;;;;;19.69;63.77;99060.75;5070678;28;20090;-64
2021/09/10 09:18:58;;;;;;;8.13;6.38;;;;;;;19.90;62.95;99066.41;5067564;28;20041;-61
2021/09/10 09:21:38;;;;;;;6.80;5.65;;;;;;;19.88;61.93;99050.59;5067917;28;20043;-61
2021/09/10 09:24:13;;;;;;;11.20;5.97;;;;;;;19.92;61.84;99056.94;5067956;28;20045;-60
2021/09/10 09:26:39;;;;;;;7.75;5.55;;;;;;;20.08;61.83;99051.16;5069377;28;20044;-61
2021/09/10 09:29:14;;;;;;;9.68;6.45;;;;;;;20.34;61.92;99051.31;5050816;28;20420;-62
2021/09/10 09:31:41;;;;;;;13.52;5.93;;;;;;;20.53;61.52;99040.31;5028109;28;20073;-60
2021/09/10 09:34:10;;;;;;;8.25;5.00;;;;;;;20.68;60.20;99042.59;5067643;28;20106;-61
2021/09/10 09:36:56;;;;;;;7.35;5.50;;;;;;;20.86;59.38;99038.84;5052425;28;20513;-61
2021/09/10 09:39:22;;;;;;;9.18;4.78;;;;;;;21.03;58.71;99042.66;5067832;28;20060;-61
2021/09/10 09:41:47;;;;;;;8.45;5.30;;;;;;;21.16;58.04;99038.25;5049739;28;20051;-61
2021/09/10 09:44:14;;;;;;;9.10;4.95;;;;;;;21.27;57.37;99048.41;5065192;28;20054;-61
2021/09/10 09:46:41;;;;;;;7.35;4.75;;;;;;;21.19;57.40;99045.72;5065633;28;20071;-61
2021/09/10 09:49:09;;;;;;;8.13;4.88;;;;;;;21.18;56.85;99046.78;5068197;28;20052;-61
2021/09/10 09:51:35;;;;;;;10.85;5.03;;;;;;;21.16;56.64;99049.03;5067001;28;20075;-60
2021/09/10 09:54:01;;;;;;;9.35;4.78;;;;;;;21.11;56.61;99055.34;5066296;28;20453;-61
2021/09/10 09:56:28;;;;;;;8.63;5.30;;;;;;;21.05;57.10;99057.41;5065809;28;20059;-62
2021/09/10 09:58:54;;;;;;;11.40;4.93;;;;;;;20.96;57.53;99055.81;5066829;28;20045;-62
2021/09/10 10:01:21;;;;;;;9.32;4.88;;;;;;;20.76;57.81;99068.75;5064603;28;20072;-62
2021/09/10 10:03:47;;;;;;;9.60;5.18;;;;;;;20.73;58.65;99069.38;5065137;28;20505;-63
2021/09/10 10:06:15;;;;;;;12.93;4.82;;;;;;;20.64;58.55;99063.16;5067850;28;20570;-60
2021/09/10 10:08:58;;;;;;;7.30;4.57;;;;;;;20.56;59.00;99070.13;5066226;28;20052;-61
2021/09/10 10:11:26;;;;;;;7.15;5.05;;;;;;;20.63;58.59;99066.97;5065291;28;20055;-63
2021/09/10 10:13:57;;;;;;;10.52;5.43;;;;;;;20.55;58.87;99081.97;5052496;28;20092;-62
2021/09/10 10:16:38;;;;;;;8.82;5.25;;;;;;;20.64;58.86;99072.03;5044850;28;20381;-62
2021/09/10 10:19:06;;;;;;;8.00;5.72;;;;;;;20.52;59.02;99074.53;5057135;28;20135;-61
2021/09/10 10:21:51;;;;;;;12.40;5.82;;;;;;;20.50;59.33;99067.81;5064982;28;20049;-62
2021/09/10 10:24:57;;;;;;;7.38;5.20;;;;;;;20.43;59.79;99073.66;5066943;28;20143;-62
2021/09/10 10:27:41;;;;;;;14.70;5.57;;;;;;;20.52;58.96;99088.00;5048366;28;20045;-61
2021/09/10 10:30:18;;;;;;;7.07;4.95;;;;;;;20.51;59.07;99089.06;5046931;28;20048;-62
2021/09/10 10:32:49;;;;;;;8.30;5.80;;;;;;;20.57;59.73;99087.06;5065995;28;20471;-61
2021/09/10 10:35:28;;;;;;;8.18;5.75;;;;;;;20.69;59.02;99084.56;5066885;28;20492;-62
2021/09/10 10:38:01;;;;;;;9.87;5.70;;;;;;;20.72;59.12;99089.34;5068259;28;20080;-62
2021/09/10 10:40:37;;;;;;;8.13;5.65;;;;;;;20.71;59.05;99095.84;5068258;28;20052;-63
2021/09/10 10:43:22;;;;;;;9.82;5.43;;;;;;;20.69;59.24;99089.97;5069243;28;20040;-61
2021/09/10 10:45:48;;;;;;;8.55;5.45;;;;;;;20.61;59.80;99096.09;5068687;28;20048;-61
2021/09/10 10:48:29;;;;;;;7.95;6.03;;;;;;;20.53;59.86;99094.16;5067112;28;20059;-59
2021/09/10 10:50:57;;;;;;;8.68;5.88;;;;;;;20.52;59.95;99092.56;5068105;28;20048;-64
2021/09/10 10:53:24;;;;;;;10.13;6.25;;;;;;;20.57;59.83;99095.16;5066512;28;20421;-61
2021/09/10 10:55:49;;;;;;;6.78;5.95;;;;;;;20.78;59.30;99090.00;5064646;28;20037;-63
2021/09/10 10:58:26;;;;;;;8.63;5.47;;;;;;;20.87;58.26;99098.91;5068418;28;20048;-61
2021/09/10 11:00:58;;;;;;;10.18;5.53;;;;;;;20.86;58.38;99094.63;5048964;28;20445;-61
2021/09/10 11:03:33;;;;;;;8.15;5.95;;;;;;;20.85;58.70;99082.25;5067516;28;20033;-62
2021/09/10 11:06:26;;;;;;;7.40;4.60;;;;;;;20.53;59.65;99092.28;5010492;28;20055;-59
2021/09/10 11:08:52;;;;;;;7.97;5.68;;;;;;;20.33;60.40;99103.56;5063666;28;20048;-62
2021/09/10 11:11:18;;;;;;;12.55;5.18;;;;;;;20.18;60.37;99100.16;5066265;28;20036;-63
2021/09/10 11:13:45;;;;;;;7.95;5.85;;;;;;;20.11;61.15;99102.47;5046891;28;20539;-62
2021/09/10 11:16:28;;;;;;;9.90;5.68;;;;;;;20.07;61.42;99101.50;5065944;28;20044;-63
2021/09/10 11:18:55;;;;;;;6.63;5.20;;;;;;;20.10;61.22;99108.16;5064272;28;20044;-60
2021/09/10 11:21:27;;;;;;;8.70;5.40;;;;;;;20.22;61.23;99096.84;5065794;28;20086;-62
2021/09/10 11:23:52;;;;;;;8.30;5.85;;;;;;;20.48;60.46;99097.78;5048935;28;20040;-61
2021/09/10 11:26:18;;;;;;;8.30;5.45;;;;;;;20.67;59.98;99099.47;5066127;28;20040;-63